createdAt,value
2023-05-31T00:00:44.837Z,57.94
2023-05-31T00:01:44.838Z,67.96
2023-05-31T00:02:44.841Z,67.57
2023-05-31T00:03:44.885Z,57.40
2023-05-31T00:04:44.762Z,63.42
2023-05-31T00:05:44.820Z,58.56
2023-05-31T00:06:44.757Z,57.41
2023-05-31T00:07:44.725Z,55.41
2023-05-31T00:08:44.749Z,50.99
2023-05-31T00:09:44.721Z,59.43
2023-05-31T00:10:44.742Z,60.77
2023-05-31T00:11:44.729Z,59.99
2023-05-31T00:12:44.730Z,60.84
2023-05-31T00:13:44.725Z,59.16
2023-05-31T00:14:44.683Z,63.51
2023-05-31T00:15:44.703Z,63.46
2023-05-31T00:17:07.632Z,61.86
2023-05-31T00:17:50.347Z,61.88
2023-05-31T00:18:45.677Z,65.55
2023-05-31T00:19:44.634Z,62.33
2023-05-31T00:20:44.746Z,62.40
2023-05-31T00:21:44.614Z,56.00
2023-05-31T00:22:44.621Z,58.38
2023-05-31T00:23:44.608Z,59.12
2023-05-31T00:24:44.556Z,60.38
2023-05-31T00:25:44.532Z,52.60
2023-05-31T00:26:44.760Z,49.75
2023-05-31T00:27:44.539Z,57.20
2023-05-31T00:28:44.653Z,56.25
2023-05-31T00:29:44.510Z,57.33
2023-05-31T00:30:44.710Z,63.44
2023-05-31T00:31:44.549Z,63.63
2023-05-31T00:32:44.533Z,64.96
2023-05-31T00:33:44.653Z,62.85
2023-05-31T00:34:44.473Z,54.39
2023-05-31T00:35:44.463Z,48.45
2023-05-31T00:36:44.609Z,54.74
2023-05-31T00:37:44.425Z,66.64
2023-05-31T00:38:44.388Z,52.42
2023-05-31T00:39:44.482Z,59.63
2023-05-31T00:40:44.422Z,51.23
2023-05-31T00:41:44.405Z,53.70
2023-05-31T00:42:44.376Z,50.04
2023-05-31T00:43:44.371Z,60.68
2023-05-31T00:44:44.652Z,59.05
2023-05-31T00:45:44.345Z,62.56
2023-05-31T00:46:44.340Z,64.09
2023-05-31T00:47:44.429Z,50.76
2023-05-31T00:48:44.396Z,54.03
2023-05-31T00:49:44.300Z,63.65
2023-05-31T00:50:44.308Z,61.86
2023-05-31T00:51:44.325Z,58.71
2023-05-31T00:52:44.315Z,53.96
2023-05-31T00:53:44.335Z,59.68
2023-05-31T00:54:44.290Z,53.73
2023-05-31T00:55:44.287Z,54.31
2023-05-31T00:56:44.234Z,61.52
2023-05-31T00:57:44.431Z,62.25
2023-05-31T00:58:44.251Z,61.08
2023-05-31T00:59:44.194Z,66.86
2023-05-31T01:00:44.283Z,53.92
2023-05-31T01:01:44.199Z,63.40
2023-05-31T01:02:44.236Z,59.37
2023-05-31T01:03:44.241Z,53.97
2023-05-31T01:04:44.182Z,67.33
2023-05-31T01:05:44.138Z,59.79
2023-05-31T01:06:44.135Z,65.58
2023-05-31T01:07:44.174Z,58.68
2023-05-31T01:08:44.149Z,56.61
2023-05-31T01:09:44.251Z,58.26
2023-05-31T01:10:44.145Z,54.82
2023-05-31T01:11:44.111Z,62.20
2023-05-31T01:12:44.160Z,60.17
2023-05-31T01:13:44.059Z,67.37
2023-05-31T01:14:44.143Z,65.38
2023-05-31T01:15:44.108Z,58.17
2023-05-31T01:16:44.131Z,60.63
2023-05-31T01:17:44.040Z,63.00
2023-05-31T01:18:44.070Z,68.47
2023-05-31T01:19:44.028Z,59.09
2023-05-31T01:20:44.900Z,64.20
2023-05-31T01:21:43.964Z,62.18
2023-05-31T01:22:43.955Z,60.56
2023-05-31T01:23:44.907Z,66.98
2023-05-31T01:24:43.943Z,58.09
2023-05-31T01:25:43.895Z,58.08
2023-05-31T01:26:44.001Z,63.47
2023-05-31T01:27:43.900Z,53.98
2023-05-31T01:28:43.927Z,60.87
2023-05-31T01:29:43.941Z,62.26
2023-05-31T01:30:44.308Z,65.24
2023-05-31T01:31:44.064Z,65.06
2023-05-31T01:32:44.201Z,58.77
2023-05-31T01:33:43.861Z,62.83
2023-05-31T01:34:44.364Z,63.67
2023-05-31T01:35:43.800Z,59.18
2023-05-31T01:36:44.010Z,58.36
2023-05-31T01:37:44.193Z,64.61
2023-05-31T01:38:43.821Z,64.96
2023-05-31T01:39:43.791Z,54.70
2023-05-31T01:40:44.789Z,59.26
2023-05-31T01:41:44.090Z,68.66
2023-05-31T01:42:43.809Z,65.77
2023-05-31T01:43:43.745Z,63.91
2023-05-31T01:44:43.703Z,65.02
2023-05-31T01:45:43.730Z,63.11
2023-05-31T01:46:44.286Z,57.91
2023-05-31T01:47:43.750Z,61.73
2023-05-31T01:48:43.708Z,66.47
2023-05-31T01:49:44.013Z,59.56
2023-05-31T01:50:43.632Z,56.56
2023-05-31T01:51:43.683Z,61.63
2023-05-31T01:52:43.631Z,58.17
2023-05-31T01:53:43.614Z,57.63
2023-05-31T01:54:43.973Z,57.84
2023-05-31T01:55:43.805Z,60.07
2023-05-31T01:56:43.862Z,57.89
2023-05-31T01:57:43.563Z,61.06
2023-05-31T01:58:43.572Z,60.15
2023-05-31T01:59:43.693Z,61.53
2023-05-31T02:00:43.676Z,61.36
2023-05-31T02:01:43.603Z,58.63
2023-05-31T02:02:43.884Z,59.56
2023-05-31T02:03:44.101Z,60.18
2023-05-31T02:04:43.766Z,56.07
2023-05-31T02:05:43.569Z,66.00
2023-05-31T02:06:43.463Z,68.01
2023-05-31T02:07:43.463Z,64.74
2023-05-31T02:08:43.762Z,59.69
2023-05-31T02:09:43.466Z,58.77
2023-05-31T02:10:43.495Z,58.78
2023-05-31T02:11:44.420Z,57.18
2023-05-31T02:12:43.428Z,64.88
2023-05-31T02:13:43.388Z,62.48
2023-05-31T02:14:43.417Z,58.98
2023-05-31T02:15:43.389Z,63.67
2023-05-31T02:16:43.448Z,64.83
2023-05-31T02:17:44.894Z,63.39
2023-05-31T02:18:43.380Z,67.04
2023-05-31T02:19:43.355Z,64.22
2023-05-31T02:20:44.859Z,64.09
2023-05-31T02:21:43.968Z,57.73
2023-05-31T02:22:43.722Z,66.51
2023-05-31T02:23:43.803Z,62.70
2023-05-31T02:24:43.289Z,68.80
2023-05-31T02:25:43.294Z,63.10
2023-05-31T02:26:43.384Z,60.43
2023-05-31T02:27:43.430Z,60.18
2023-05-31T02:28:43.820Z,58.41
2023-05-31T02:29:43.370Z,59.61
2023-05-31T02:30:43.534Z,65.54
2023-05-31T02:31:43.490Z,60.86
2023-05-31T02:32:43.290Z,62.85
2023-05-31T02:33:43.539Z,62.80
2023-05-31T02:34:43.363Z,63.32
2023-05-31T02:35:44.246Z,62.69
2023-05-31T02:36:43.174Z,62.61
2023-05-31T02:37:43.387Z,61.49
2023-05-31T02:38:43.488Z,64.92
2023-05-31T02:39:43.155Z,62.24
2023-05-31T02:40:43.109Z,66.07
2023-05-31T02:41:43.249Z,66.95
2023-05-31T02:42:43.240Z,61.86
2023-05-31T02:43:43.084Z,68.56
2023-05-31T02:44:43.578Z,68.33
2023-05-31T02:45:43.306Z,66.49
2023-05-31T02:46:43.460Z,63.44
2023-05-31T02:47:43.075Z,66.30
2023-05-31T02:48:43.011Z,65.05
2023-05-31T02:49:43.454Z,62.66
2023-05-31T02:50:43.022Z,65.24
2023-05-31T02:51:43.020Z,64.98
2023-05-31T02:52:42.968Z,66.15
2023-05-31T02:53:43.042Z,60.79
2023-05-31T02:54:43.012Z,65.57
2023-05-31T02:55:43.024Z,68.83
2023-05-31T02:56:43.034Z,69.24
2023-05-31T02:57:44.062Z,69.90
2023-05-31T02:58:42.924Z,68.09
2023-05-31T02:59:42.925Z,66.01
2023-05-31T03:00:42.931Z,67.29
2023-05-31T03:01:42.881Z,62.75
2023-05-31T03:02:42.948Z,64.43
2023-05-31T03:03:43.246Z,67.36
2023-05-31T03:04:42.845Z,67.63
2023-05-31T03:05:42.880Z,65.22
2023-05-31T03:06:43.021Z,69.88
2023-05-31T03:07:42.896Z,68.91
2023-05-31T03:08:42.989Z,67.83
2023-05-31T03:09:43.164Z,68.11
2023-05-31T03:10:43.204Z,68.66
2023-05-31T03:11:42.817Z,67.56
2023-05-31T03:12:42.792Z,68.48
2023-05-31T03:13:43.009Z,69.05
2023-05-31T03:14:42.808Z,69.80
2023-05-31T03:15:42.775Z,69.80
2023-05-31T03:16:42.778Z,69.96
2023-05-31T03:17:42.784Z,69.32
2023-05-31T03:18:42.726Z,69.09
2023-05-31T03:19:42.732Z,69.69
2023-05-31T03:20:42.710Z,72.46
2023-05-31T03:21:42.733Z,68.49
2023-05-31T03:22:42.702Z,72.32
2023-05-31T03:23:42.702Z,71.20
2023-05-31T03:24:42.713Z,71.79
2023-05-31T03:25:42.713Z,70.34
2023-05-31T03:26:42.671Z,72.71
2023-05-31T03:27:43.724Z,71.25
2023-05-31T03:28:42.623Z,71.97
2023-05-31T03:29:42.611Z,73.45
2023-05-31T03:30:42.634Z,72.77
2023-05-31T03:31:42.710Z,70.88
2023-05-31T03:32:42.627Z,72.33
2023-05-31T03:33:42.590Z,72.71
2023-05-31T03:34:43.546Z,72.01
2023-05-31T03:35:42.551Z,72.03
2023-05-31T03:36:42.578Z,74.22
2023-05-31T03:37:42.538Z,74.03
2023-05-31T03:38:42.633Z,74.18
2023-05-31T03:39:42.511Z,72.78
2023-05-31T03:40:42.507Z,72.03
2023-05-31T03:41:42.497Z,73.93
2023-05-31T03:42:42.525Z,72.73
2023-05-31T03:43:42.504Z,69.89
2023-05-31T03:44:42.472Z,73.77
2023-05-31T03:45:42.506Z,71.13
2023-05-31T03:46:42.479Z,71.97
2023-05-31T03:47:42.446Z,72.52
2023-05-31T03:48:42.465Z,72.71
2023-05-31T03:49:42.384Z,73.34
2023-05-31T03:50:42.438Z,72.22
2023-05-31T03:51:42.376Z,73.23
2023-05-31T03:52:42.374Z,73.43
2023-05-31T03:53:42.358Z,72.85
2023-05-31T03:54:42.340Z,75.02
2023-05-31T03:55:42.904Z,72.44
2023-05-31T03:56:42.358Z,72.97
2023-05-31T03:57:42.286Z,73.52
2023-05-31T03:58:42.295Z,73.08
2023-05-31T03:59:42.309Z,70.62
2023-05-31T04:00:42.266Z,72.81
2023-05-31T04:01:42.291Z,76.15
2023-05-31T04:02:52.195Z,74.30
2023-05-31T04:03:44.442Z,72.39
2023-05-31T04:04:42.254Z,73.04
2023-05-31T04:05:42.234Z,76.65
2023-05-31T04:06:42.189Z,73.86
2023-05-31T04:07:42.189Z,73.38
2023-05-31T04:08:42.162Z,74.34
2023-05-31T04:09:42.941Z,72.66
2023-05-31T04:10:42.143Z,73.04
2023-05-31T04:11:42.222Z,74.06
2023-05-31T04:12:42.111Z,74.89
2023-05-31T04:13:42.131Z,74.73
2023-05-31T04:14:42.122Z,72.56
2023-05-31T04:15:42.377Z,71.82
2023-05-31T04:16:42.120Z,72.82
2023-05-31T04:17:42.843Z,73.44
2023-05-31T04:18:42.052Z,73.56
2023-05-31T04:19:42.054Z,73.61
2023-05-31T04:20:42.055Z,71.39
2023-05-31T04:21:42.044Z,74.01
2023-05-31T04:22:42.003Z,73.03
2023-05-31T04:23:41.997Z,74.11
2023-05-31T04:24:41.966Z,76.14
2023-05-31T04:25:41.957Z,75.80
2023-05-31T04:26:42.797Z,74.67
2023-05-31T04:27:42.016Z,72.79
2023-05-31T04:28:41.931Z,75.32
2023-05-31T04:29:42.102Z,74.24
2023-05-31T04:30:41.900Z,73.65
2023-05-31T04:31:51.247Z,75.40
2023-05-31T04:32:43.970Z,74.56
2023-05-31T04:33:41.891Z,73.56
2023-05-31T04:34:41.918Z,75.22
2023-05-31T04:35:41.916Z,73.53
2023-05-31T04:36:41.847Z,73.85
2023-05-31T04:37:41.825Z,76.58
2023-05-31T04:38:41.806Z,74.96
2023-05-31T04:39:41.910Z,74.93
2023-05-31T04:40:41.793Z,75.30
2023-05-31T04:41:41.942Z,75.30
2023-05-31T04:42:41.841Z,75.13
2023-05-31T04:43:41.749Z,75.22
2023-05-31T04:44:41.768Z,75.56
2023-05-31T04:45:41.746Z,76.55
2023-05-31T04:46:42.696Z,74.85
2023-05-31T04:47:41.751Z,75.78
2023-05-31T04:48:41.686Z,75.93
2023-05-31T04:49:54.363Z,74.70
2023-05-31T04:50:43.872Z,74.04
2023-05-31T04:51:41.783Z,73.94
2023-05-31T04:52:41.875Z,76.19
2023-05-31T04:53:41.698Z,75.46
2023-05-31T04:54:41.632Z,72.34
2023-05-31T04:55:41.635Z,73.34
2023-05-31T04:56:41.707Z,74.03
2023-05-31T04:57:41.611Z,75.51
2023-05-31T04:58:41.665Z,74.37
2023-05-31T04:59:41.617Z,75.36
2023-05-31T05:00:41.879Z,72.64
2023-05-31T05:01:41.758Z,72.40
2023-05-31T05:02:41.617Z,73.71
2023-05-31T05:03:41.727Z,74.57
2023-05-31T05:04:41.808Z,73.04
2023-05-31T05:05:41.865Z,73.03
2023-05-31T05:06:42.083Z,74.77
2023-05-31T05:07:41.872Z,74.20
2023-05-31T05:08:41.745Z,73.72
2023-05-31T05:09:42.028Z,74.16
2023-05-31T05:10:41.544Z,73.57
2023-05-31T05:11:41.720Z,76.42
2023-05-31T05:12:41.443Z,73.59
2023-05-31T05:13:41.504Z,74.58
2023-05-31T05:14:41.731Z,75.04
2023-05-31T05:15:41.464Z,73.36
2023-05-31T05:16:42.537Z,73.94
2023-05-31T05:17:41.433Z,74.09
2023-05-31T05:18:41.463Z,75.18
2023-05-31T05:19:41.435Z,73.31
2023-05-31T05:20:41.552Z,72.66
2023-05-31T05:21:41.502Z,73.81
2023-05-31T05:22:42.203Z,72.89
2023-05-31T05:23:41.649Z,74.69
2023-05-31T05:24:42.145Z,73.97
2023-05-31T05:25:41.339Z,74.34
2023-05-31T05:26:41.368Z,76.56
2023-05-31T05:27:41.395Z,75.11
2023-05-31T05:28:41.586Z,73.16
2023-05-31T05:29:41.327Z,72.09
2023-05-31T05:30:41.354Z,74.92
2023-05-31T05:31:41.298Z,74.45
2023-05-31T05:32:41.346Z,74.40
2023-05-31T05:33:41.235Z,73.09
2023-05-31T05:34:41.248Z,73.24
2023-05-31T05:35:41.921Z,73.80
2023-05-31T05:36:41.300Z,73.74
2023-05-31T05:37:41.195Z,72.53
2023-05-31T05:38:41.247Z,72.12
2023-05-31T05:39:41.211Z,74.69
2023-05-31T05:40:41.183Z,72.80
2023-05-31T05:41:41.143Z,73.27
2023-05-31T05:42:41.319Z,72.61
2023-05-31T05:43:42.157Z,70.64
2023-05-31T05:44:41.141Z,73.47
2023-05-31T05:45:41.151Z,71.76
2023-05-31T05:46:41.136Z,72.84
2023-05-31T05:47:41.109Z,72.22
2023-05-31T05:48:41.883Z,70.27
2023-05-31T05:49:41.117Z,72.39
2023-05-31T05:50:41.098Z,72.73
2023-05-31T05:51:41.078Z,71.38
2023-05-31T05:52:41.064Z,72.99
2023-05-31T05:53:41.016Z,73.31
2023-05-31T05:54:41.095Z,71.98
2023-05-31T05:55:41.209Z,72.28
2023-05-31T05:56:40.992Z,73.29
2023-05-31T05:57:41.001Z,73.24
2023-05-31T05:58:41.010Z,70.81
2023-05-31T05:59:41.020Z,70.80
2023-05-31T06:00:40.943Z,72.55
2023-05-31T06:01:41.083Z,71.37
2023-05-31T06:02:40.951Z,73.55
2023-05-31T06:03:41.067Z,71.29
2023-05-31T06:04:40.915Z,70.89
2023-05-31T06:05:41.198Z,72.21
2023-05-31T06:06:40.868Z,71.80
2023-05-31T06:07:40.857Z,71.83
2023-05-31T06:08:40.938Z,71.96
2023-05-31T06:09:41.258Z,71.07
2023-05-31T06:10:41.226Z,68.92
2023-05-31T06:11:40.803Z,71.11
2023-05-31T06:12:40.887Z,72.35
2023-05-31T06:13:40.799Z,70.95
2023-05-31T06:14:40.902Z,69.77
2023-05-31T06:15:40.791Z,71.54
2023-05-31T06:16:40.855Z,70.38
2023-05-31T06:17:40.747Z,70.01
2023-05-31T06:18:40.903Z,70.30
2023-05-31T06:19:40.698Z,70.83
2023-05-31T06:20:40.679Z,70.11
2023-05-31T06:21:40.785Z,71.83
2023-05-31T06:22:40.702Z,69.91
2023-05-31T06:23:40.674Z,70.40
2023-05-31T06:24:40.685Z,71.16
2023-05-31T06:25:40.659Z,70.52
2023-05-31T06:26:40.758Z,69.32
2023-05-31T06:27:41.400Z,72.93
2023-05-31T06:28:40.613Z,68.60
2023-05-31T06:29:40.627Z,69.74
2023-05-31T06:30:40.613Z,71.95
2023-05-31T06:31:40.606Z,69.70
2023-05-31T06:32:40.612Z,68.63
2023-05-31T06:33:40.536Z,68.93
2023-05-31T06:34:40.645Z,70.81
2023-05-31T06:35:40.544Z,68.00
2023-05-31T06:36:40.563Z,70.53
2023-05-31T06:37:41.156Z,70.02
2023-05-31T06:38:40.497Z,68.41
2023-05-31T06:39:40.519Z,68.66
2023-05-31T06:40:40.493Z,70.54
2023-05-31T06:41:40.606Z,70.37
2023-05-31T06:42:40.507Z,69.90
2023-05-31T06:43:40.470Z,70.50
2023-05-31T06:44:54.475Z,71.69
2023-05-31T06:45:42.518Z,69.10
2023-05-31T06:46:40.483Z,67.91
2023-05-31T06:47:40.519Z,72.18
2023-05-31T06:48:40.416Z,69.53
2023-05-31T06:49:40.605Z,70.97
2023-05-31T06:50:40.377Z,69.32
2023-05-31T06:51:40.599Z,68.59
2023-05-31T06:52:40.354Z,69.07
2023-05-31T06:53:40.409Z,69.95
2023-05-31T06:54:40.482Z,66.51
2023-05-31T06:55:40.446Z,69.03
2023-05-31T06:56:40.280Z,65.79
2023-05-31T06:57:40.480Z,67.48
2023-05-31T06:58:40.334Z,70.06
2023-05-31T06:59:40.337Z,70.62
2023-05-31T07:00:40.769Z,69.42
2023-05-31T07:01:40.546Z,71.41
2023-05-31T07:02:40.312Z,69.41
2023-05-31T07:03:40.596Z,70.12
2023-05-31T07:04:40.221Z,66.99
2023-05-31T07:05:40.340Z,66.99
2023-05-31T07:06:40.402Z,68.11
2023-05-31T07:07:40.233Z,69.42
2023-05-31T07:08:40.277Z,68.71
2023-05-31T07:09:40.398Z,65.35
2023-05-31T07:10:40.245Z,70.09
2023-05-31T07:11:40.140Z,65.61
2023-05-31T07:12:40.174Z,67.30
2023-05-31T07:13:40.125Z,70.20
2023-05-31T07:14:40.192Z,67.89
2023-05-31T07:15:40.197Z,68.16
2023-05-31T07:16:40.200Z,68.54
2023-05-31T07:17:40.280Z,64.10
2023-05-31T07:18:40.165Z,69.26
2023-05-31T07:19:40.300Z,68.05
2023-05-31T07:20:40.185Z,66.80
2023-05-31T07:21:40.222Z,69.95
2023-05-31T07:22:41.301Z,66.95
2023-05-31T07:23:40.060Z,69.49
2023-05-31T07:24:40.013Z,66.46
2023-05-31T07:25:40.029Z,66.69
2023-05-31T07:26:40.002Z,69.08
2023-05-31T07:27:40.024Z,68.57
2023-05-31T07:28:39.992Z,69.20
2023-05-31T07:29:40.001Z,67.43
2023-05-31T07:30:39.952Z,69.11
2023-05-31T07:31:40.442Z,68.27
2023-05-31T07:32:40.326Z,67.36
2023-05-31T07:33:40.095Z,69.22
2023-05-31T07:34:39.893Z,67.94
2023-05-31T07:35:40.981Z,66.66
2023-05-31T07:36:39.891Z,67.67
2023-05-31T07:37:40.993Z,64.86
2023-05-31T07:38:39.860Z,65.26
2023-05-31T07:39:39.894Z,67.54
2023-05-31T07:40:39.811Z,69.95
2023-05-31T07:41:39.890Z,67.05
2023-05-31T07:42:39.853Z,66.58
2023-05-31T07:43:39.858Z,65.98
2023-05-31T07:45:12.341Z,67.73
2023-05-31T07:45:39.974Z,68.97
2023-05-31T07:46:39.844Z,67.39
2023-05-31T07:47:40.026Z,65.56
2023-05-31T07:48:39.828Z,68.26
2023-05-31T07:49:39.886Z,69.11
2023-05-31T07:50:39.812Z,69.91
2023-05-31T07:51:39.881Z,67.20
2023-05-31T07:52:39.741Z,68.55
2023-05-31T07:53:39.772Z,68.90
2023-05-31T07:54:40.251Z,65.83
2023-05-31T07:55:40.477Z,66.60
2023-05-31T07:56:39.785Z,68.97
2023-05-31T07:57:39.846Z,68.90
2023-05-31T07:58:39.888Z,70.22
2023-05-31T07:59:39.763Z,65.55
2023-05-31T08:00:39.711Z,66.50
2023-05-31T08:01:39.864Z,69.14
2023-05-31T08:02:39.761Z,67.33
2023-05-31T08:03:39.913Z,68.38
2023-05-31T08:04:39.661Z,67.09
2023-05-31T08:05:39.716Z,66.71
2023-05-31T08:06:39.671Z,63.72
2023-05-31T08:07:39.605Z,68.09
2023-05-31T08:08:39.617Z,68.61
2023-05-31T08:09:39.637Z,69.67
2023-05-31T08:10:39.655Z,64.24
2023-05-31T08:11:39.562Z,66.93
2023-05-31T08:12:39.533Z,67.41
2023-05-31T08:13:39.627Z,67.26
2023-05-31T08:14:39.654Z,64.90
2023-05-31T08:15:39.551Z,68.21
2023-05-31T08:16:39.561Z,68.66
2023-05-31T08:17:39.552Z,69.24
2023-05-31T08:18:39.534Z,66.75
2023-05-31T08:19:39.505Z,68.26
2023-05-31T08:20:40.782Z,66.16
2023-05-31T08:21:39.515Z,68.99
2023-05-31T08:22:40.350Z,68.87
2023-05-31T08:23:39.406Z,67.53
2023-05-31T08:24:39.458Z,66.77
2023-05-31T08:25:39.444Z,68.30
2023-05-31T08:26:39.520Z,66.49
2023-05-31T08:27:39.455Z,66.80
2023-05-31T08:28:39.392Z,67.56
2023-05-31T08:29:39.471Z,66.39
2023-05-31T08:30:39.385Z,66.17
2023-05-31T08:31:39.411Z,63.64
2023-05-31T08:32:39.430Z,66.70
2023-05-31T08:33:39.383Z,67.08
2023-05-31T08:34:39.389Z,68.20
2023-05-31T08:35:39.396Z,68.15
2023-05-31T08:37:13.567Z,66.39
2023-05-31T08:37:39.354Z,68.95
2023-05-31T08:38:39.420Z,67.47
2023-05-31T08:39:39.552Z,66.53
2023-05-31T08:40:39.364Z,68.20
2023-05-31T08:41:39.850Z,68.01
2023-05-31T08:42:39.312Z,68.91
2023-05-31T08:43:39.235Z,66.26
2023-05-31T08:44:39.249Z,67.16
2023-05-31T08:45:39.431Z,70.02
2023-05-31T08:46:39.237Z,70.68
2023-05-31T08:47:39.250Z,64.59
2023-05-31T08:48:39.223Z,64.47
2023-05-31T08:49:39.213Z,67.62
2023-05-31T08:50:39.222Z,65.86
2023-05-31T08:51:39.144Z,67.01
2023-05-31T08:52:39.136Z,68.11
2023-05-31T08:53:39.252Z,67.35
2023-05-31T08:54:39.073Z,66.10
2023-05-31T08:55:39.325Z,67.94
2023-05-31T08:56:40.294Z,67.83
2023-05-31T08:57:39.135Z,66.21
2023-05-31T08:58:39.119Z,66.20
2023-05-31T08:59:39.092Z,67.99
2023-05-31T09:00:39.059Z,68.42
2023-05-31T09:01:39.088Z,68.61
2023-05-31T09:02:39.067Z,69.53
2023-05-31T09:03:39.051Z,68.45
2023-05-31T09:04:39.104Z,70.05
2023-05-31T09:05:38.997Z,66.63
2023-05-31T09:06:38.991Z,67.32
2023-05-31T09:07:38.977Z,69.83
2023-05-31T09:08:38.984Z,67.45
2023-05-31T09:09:39.370Z,69.69
2023-05-31T09:10:39.276Z,67.67
2023-05-31T09:11:38.967Z,67.19
2023-05-31T09:12:39.283Z,61.70
2023-05-31T09:13:38.919Z,69.32
2023-05-31T09:14:38.982Z,66.62
2023-05-31T09:15:38.933Z,65.51
2023-05-31T09:16:39.031Z,63.84
2023-05-31T09:17:39.147Z,66.12
2023-05-31T09:18:38.940Z,66.74
2023-05-31T09:19:39.036Z,68.02
2023-05-31T09:20:39.048Z,68.03
2023-05-31T09:21:38.914Z,68.23
2023-05-31T09:22:38.872Z,68.97
2023-05-31T09:23:38.808Z,67.21
2023-05-31T09:24:38.919Z,65.61
2023-05-31T09:25:38.824Z,68.63
2023-05-31T09:26:39.540Z,67.95
2023-05-31T09:27:38.800Z,65.92
2023-05-31T09:28:39.288Z,68.88
2023-05-31T09:29:38.817Z,67.77
2023-05-31T09:30:38.785Z,67.44
2023-05-31T09:31:38.880Z,66.50
2023-05-31T09:32:38.803Z,67.24
2023-05-31T09:33:38.761Z,67.75
2023-05-31T09:34:38.753Z,67.17
2023-05-31T09:35:38.731Z,67.64
2023-05-31T09:36:38.652Z,68.43
2023-05-31T09:37:38.774Z,66.77
2023-05-31T09:38:38.697Z,65.71
2023-05-31T09:39:38.652Z,68.49
2023-05-31T09:40:38.872Z,68.24
2023-05-31T09:41:38.683Z,63.85
2023-05-31T09:42:38.692Z,65.71
2023-05-31T09:43:39.695Z,68.91
2023-05-31T09:44:39.683Z,66.77
2023-05-31T09:45:38.674Z,66.85
2023-05-31T09:46:38.663Z,67.68
2023-05-31T09:47:38.679Z,69.30
2023-05-31T09:48:38.601Z,69.99
2023-05-31T09:49:39.438Z,69.61
2023-05-31T09:50:38.593Z,70.03
2023-05-31T09:51:38.569Z,64.26
2023-05-31T09:52:38.545Z,65.47
2023-05-31T09:53:39.423Z,66.81
2023-05-31T09:54:38.509Z,68.36
2023-05-31T09:55:38.637Z,66.06
2023-05-31T09:56:38.560Z,69.25
2023-05-31T09:57:38.549Z,67.39
2023-05-31T09:58:38.522Z,68.79
2023-05-31T09:59:38.469Z,66.54
2023-05-31T10:00:38.493Z,68.22
2023-05-31T10:01:38.550Z,68.13
2023-05-31T10:02:38.610Z,67.03
2023-05-31T10:03:38.454Z,64.87
2023-05-31T10:04:38.454Z,67.45
2023-05-31T10:05:38.659Z,66.00
2023-05-31T10:06:38.491Z,67.50
2023-05-31T10:07:38.363Z,66.26
2023-05-31T10:08:38.918Z,69.41
2023-05-31T10:09:38.416Z,68.56
2023-05-31T10:10:38.491Z,65.55
2023-05-31T10:11:38.524Z,64.81
2023-05-31T10:12:38.378Z,66.39
2023-05-31T10:13:38.374Z,68.69
2023-05-31T10:14:38.297Z,68.62
2023-05-31T10:15:38.368Z,64.40
2023-05-31T10:16:38.279Z,67.43
2023-05-31T10:17:38.355Z,66.00
2023-05-31T10:18:38.889Z,68.54
2023-05-31T10:19:38.267Z,67.54
2023-05-31T10:20:38.435Z,70.17
2023-05-31T10:21:38.251Z,66.72
2023-05-31T10:22:38.241Z,65.81
2023-05-31T10:23:38.221Z,67.76
2023-05-31T10:24:38.187Z,68.32
2023-05-31T10:25:38.860Z,67.76
2023-05-31T10:26:38.372Z,69.90
2023-05-31T10:27:38.380Z,68.52
2023-05-31T10:28:38.152Z,64.48
2023-05-31T10:29:38.887Z,66.20
2023-05-31T10:30:38.173Z,70.32
2023-05-31T10:31:38.208Z,66.51
2023-05-31T10:32:38.238Z,68.31
2023-05-31T10:33:38.089Z,65.84
2023-05-31T10:34:38.145Z,66.55
2023-05-31T10:35:38.117Z,68.65
2023-05-31T10:36:38.100Z,65.50
2023-05-31T10:37:38.181Z,66.43
2023-05-31T10:38:38.163Z,67.13
2023-05-31T10:39:38.089Z,68.12
2023-05-31T10:40:38.114Z,67.02
2023-05-31T10:41:38.016Z,66.97
2023-05-31T10:42:38.012Z,66.07
2023-05-31T10:43:38.095Z,67.34
2023-05-31T10:44:38.028Z,66.94
2023-05-31T10:45:38.020Z,67.62
2023-05-31T10:46:37.994Z,69.27
2023-05-31T10:47:38.564Z,66.24
2023-05-31T10:48:38.028Z,67.94
2023-05-31T10:49:38.038Z,67.39
2023-05-31T10:50:37.979Z,70.37
2023-05-31T10:51:38.012Z,71.68
2023-05-31T10:52:38.926Z,69.59
2023-05-31T10:53:38.129Z,66.10
2023-05-31T10:54:37.965Z,69.97
2023-05-31T10:55:38.107Z,69.61
2023-05-31T10:56:37.919Z,68.54
2023-05-31T10:57:37.901Z,67.14
2023-05-31T10:58:38.000Z,67.21
2023-05-31T10:59:37.871Z,65.89
2023-05-31T11:00:37.958Z,67.61
2023-05-31T11:01:37.859Z,69.66
2023-05-31T11:02:37.909Z,66.21
2023-05-31T11:03:41.063Z,70.26
2023-05-31T11:04:38.881Z,67.16
2023-05-31T11:05:37.801Z,68.16
2023-05-31T11:06:37.803Z,68.75
2023-05-31T11:07:37.811Z,66.30
2023-05-31T11:08:37.802Z,66.99
2023-05-31T11:09:37.815Z,67.93
2023-05-31T11:10:37.767Z,68.29
2023-05-31T11:11:37.832Z,66.81
2023-05-31T11:12:37.720Z,69.35
2023-05-31T11:13:38.719Z,66.39
2023-05-31T11:14:37.749Z,67.17
2023-05-31T11:15:37.722Z,67.28
2023-05-31T11:16:37.813Z,65.03
2023-05-31T11:17:37.741Z,67.51
2023-05-31T11:18:37.721Z,67.03
2023-05-31T11:19:38.699Z,67.20
2023-05-31T11:20:37.783Z,67.73
2023-05-31T11:21:37.736Z,68.02
2023-05-31T11:22:37.769Z,68.87
2023-05-31T11:23:37.694Z,67.73
2023-05-31T11:24:38.406Z,68.97
2023-05-31T11:25:37.617Z,67.70
2023-05-31T11:26:37.642Z,69.04
2023-05-31T11:27:37.671Z,70.21
2023-05-31T11:28:37.596Z,67.77
2023-05-31T11:29:38.423Z,67.69
2023-05-31T11:30:37.785Z,67.98
2023-05-31T11:31:37.627Z,68.03
2023-05-31T11:33:10.098Z,68.60
2023-05-31T11:33:41.738Z,67.96
2023-05-31T11:34:39.576Z,71.89
2023-05-31T11:35:37.543Z,70.59
2023-05-31T11:36:37.759Z,68.70
2023-05-31T11:37:37.739Z,67.93
2023-05-31T11:38:38.068Z,70.65
2023-05-31T11:39:37.510Z,70.48
2023-05-31T11:40:37.573Z,72.45
2023-05-31T11:41:37.506Z,71.00
2023-05-31T11:42:37.468Z,69.24
2023-05-31T11:43:37.413Z,74.52
2023-05-31T11:44:37.425Z,66.77
2023-05-31T11:45:38.234Z,67.84
2023-05-31T11:46:37.502Z,74.24
2023-05-31T11:47:38.485Z,73.43
2023-05-31T11:48:37.719Z,70.08
2023-05-31T11:49:37.413Z,73.60
2023-05-31T11:50:37.394Z,68.54
2023-05-31T11:51:37.369Z,69.39
2023-05-31T11:52:37.348Z,70.98
2023-05-31T11:53:37.337Z,69.51
2023-05-31T11:54:37.292Z,69.72
2023-05-31T11:55:37.552Z,70.80
2023-05-31T11:56:37.349Z,71.63
2023-05-31T11:57:37.286Z,72.28
2023-05-31T11:58:37.270Z,73.73
2023-05-31T11:59:37.358Z,69.82
2023-05-31T12:00:37.276Z,69.64
2023-05-31T12:01:37.328Z,68.43
2023-05-31T12:02:37.276Z,66.98
2023-05-31T12:03:37.289Z,70.76
2023-05-31T12:04:37.214Z,69.91
2023-05-31T12:05:37.196Z,69.20
2023-05-31T12:06:37.151Z,68.07
2023-05-31T12:07:37.202Z,70.00
2023-05-31T12:08:37.133Z,68.08
2023-05-31T12:09:37.137Z,70.15
2023-05-31T12:10:37.207Z,67.06
2023-05-31T12:11:37.139Z,69.64
2023-05-31T12:12:37.134Z,71.20
2023-05-31T12:13:37.092Z,68.08
2023-05-31T12:14:37.122Z,69.28
2023-05-31T12:15:37.077Z,70.45
2023-05-31T12:16:37.196Z,68.41
2023-05-31T12:17:37.175Z,69.27
2023-05-31T12:18:37.186Z,68.28
2023-05-31T12:19:37.042Z,71.33
2023-05-31T12:20:37.134Z,71.08
2023-05-31T12:21:37.037Z,70.59
2023-05-31T12:22:37.052Z,69.41
2023-05-31T12:23:37.006Z,72.31
2023-05-31T12:24:37.032Z,68.60
2023-05-31T12:25:37.019Z,68.68
2023-05-31T12:26:36.986Z,69.48
2023-05-31T12:27:45.235Z,68.71
2023-05-31T12:28:38.918Z,68.38
2023-05-31T12:29:36.993Z,69.75
2023-05-31T12:30:47.116Z,70.56
2023-05-31T12:31:39.478Z,69.07
2023-05-31T12:32:36.907Z,70.97
2023-05-31T12:33:36.910Z,68.19
2023-05-31T12:34:36.907Z,69.90
2023-05-31T12:35:36.899Z,68.58
2023-05-31T12:36:36.867Z,70.28
2023-05-31T12:37:36.893Z,71.10
2023-05-31T12:38:36.825Z,70.39
2023-05-31T12:39:36.827Z,68.85
2023-05-31T12:40:37.489Z,68.38
2023-05-31T12:41:36.912Z,71.21
2023-05-31T12:42:36.816Z,70.97
2023-05-31T12:43:36.771Z,67.25
2023-05-31T12:44:36.780Z,68.22
2023-05-31T12:45:36.833Z,69.65
2023-05-31T12:46:36.800Z,66.50
2023-05-31T12:47:36.926Z,68.63
2023-05-31T12:48:36.799Z,66.75
2023-05-31T12:49:37.747Z,67.57
2023-05-31T12:50:36.726Z,66.53
2023-05-31T12:51:36.689Z,67.30
2023-05-31T12:52:36.830Z,68.64